Time;durP1;ratioP1;P1;durP2;ratioP2;P2;SDS_P1;SDS_P2;PMS_P1;PMS_P2;Temp;Humidity;BMP_temperature;BMP_pressure;BME280_temperature;BME280_humidity;BME280_pressure;Samples;Min_cycle;Max_cycle;Signal;HPM_P1;HPM_P2
2023/05/13 00:02:25;;;;;;;20.15;10.63;;;;;;;;;;6216812;28;20042;-58
2023/05/13 00:05:26;;;;;;;22.08;10.25;;;;;;;;;;6213113;28;20037;-55
2023/05/13 00:08:26;;;;;;;20.58;11.60;;;;;;;;;;6217486;28;20499;-58
2023/05/13 00:11:27;;;;;;;21.30;10.93;;;;;;;;;;6221239;28;20564;-59
2023/05/13 00:14:27;;;;;;;24.90;12.30;;;;;;;;;;6221173;28;20058;-60
2023/05/13 00:17:28;;;;;;;26.83;13.18;;;;;;;;;;6221297;28;20168;-59
2023/05/13 00:20:29;;;;;;;29.23;14.05;;;;;;;;;;6219397;28;20412;-60
2023/05/13 00:23:29;;;;;;;24.25;12.57;;;;;;;;;;6219039;28;20076;-56
2023/05/13 00:26:30;;;;;;;28.05;13.57;;;;;;;;;;6219165;28;20465;-60
2023/05/13 00:29:31;;;;;;;30.65;13.98;;;;;;;;;;6218425;28;20505;-58
2023/05/13 00:32:31;;;;;;;38.00;16.25;;;;;;;;;;6223176;28;20034;-56
2023/05/13 00:35:32;;;;;;;28.20;13.32;;;;;;;;;;6220263;28;20037;-60
2023/05/13 00:38:32;;;;;;;26.73;13.95;;;;;;;;;;6225782;28;20865;-58
2023/05/13 00:41:33;;;;;;;25.52;12.95;;;;;;;;;;6223181;28;20941;-57
2023/05/13 00:44:34;;;;;;;25.05;12.93;;;;;;;;;;6218602;28;20042;-61
2023/05/13 00:47:35;;;;;;;24.53;12.83;;;;;;;;;;6222099;28;20046;-60
2023/05/13 00:50:35;;;;;;;24.83;13.10;;;;;;;;;;6229478;28;20065;-60
2023/05/13 00:53:38;;;;;;;26.48;13.98;;;;;;;;;;6220874;28;20049;-61
2023/05/13 00:56:38;;;;;;;24.98;13.77;;;;;;;;;;6221651;28;20077;-59
2023/05/13 00:59:39;;;;;;;29.13;12.73;;;;;;;;;;6223434;28;20045;-59
2023/05/13 01:02:55;;;;;;;22.63;12.25;;;;;;;;;;6220991;28;20045;-59
2023/05/13 01:06:12;;;;;;;25.13;13.15;;;;;;;;;;6224196;28;20042;-56
2023/05/13 01:09:44;;;;;;;24.38;12.68;;;;;;;;;;6225100;28;21555;-60
2023/05/13 01:12:45;;;;;;;31.17;13.18;;;;;;;;;;6222100;28;20034;-60
2023/05/13 01:16:09;;;;;;;21.83;11.95;;;;;;;;;;6219970;28;20045;-61
2023/05/13 01:19:32;;;;;;;26.08;12.70;;;;;;;;;;6221311;28;20050;-61
2023/05/13 01:22:33;;;;;;;30.23;12.75;;;;;;;;;;6220082;28;20561;-61
2023/05/13 01:25:34;;;;;;;24.90;12.88;;;;;;;;;;6222903;28;20515;-59
2023/05/13 01:28:35;;;;;;;21.70;12.25;;;;;;;;;;6222343;28;20589;-62
2023/05/13 01:31:37;;;;;;;24.58;13.00;;;;;;;;;;6222446;28;20046;-60
2023/05/13 01:34:39;;;;;;;;;;;;;;;;;;6220036;28;20046;-60
2023/05/13 01:37:41;;;;;;;26.17;13.25;;;;;;;;;;6221793;28;19925;-60
2023/05/13 01:40:41;;;;;;;24.55;12.95;;;;;;;;;;6222432;28;20045;-60
2023/05/13 01:43:42;;;;;;;23.25;11.93;;;;;;;;;;6220903;28;20076;-58
2023/05/13 01:46:43;;;;;;;24.98;12.43;;;;;;;;;;6228319;28;20626;-60
2023/05/13 01:49:44;;;;;;;22.83;12.73;;;;;;;;;;6219163;28;20049;-60
2023/05/13 01:52:44;;;;;;;26.42;12.65;;;;;;;;;;6219574;28;20292;-60
2023/05/13 01:55:45;;;;;;;24.00;13.35;;;;;;;;;;6221560;28;20046;-57
2023/05/13 01:58:45;;;;;;;23.00;12.85;;;;;;;;;;6235511;28;20053;-60
2023/05/13 02:01:46;;;;;;;24.20;12.52;;;;;;;;;;6232615;28;20888;-57
2023/05/13 02:04:47;;;;;;;23.58;12.57;;;;;;;;;;6234813;28;20052;-60
2023/05/13 02:07:47;;;;;;;29.75;13.95;;;;;;;;;;6229954;28;20142;-60
2023/05/13 02:10:57;;;;;;;25.70;13.30;;;;;;;;;;6233304;28;20060;-60
2023/05/13 02:13:58;;;;;;;27.33;12.48;;;;;;;;;;6235260;28;20502;-59
2023/05/13 02:16:59;;;;;;;25.05;13.73;;;;;;;;;;6233960;28;20037;-57
2023/05/13 02:19:59;;;;;;;23.42;12.63;;;;;;;;;;6238022;28;20045;-59
2023/05/13 02:23:00;;;;;;;21.48;12.05;;;;;;;;;;6228450;28;20811;-60
2023/05/13 02:26:01;;;;;;;25.10;11.90;;;;;;;;;;6223545;28;20046;-60
2023/05/13 02:29:01;;;;;;;23.17;11.93;;;;;;;;;;6223591;28;20038;-60
2023/05/13 02:32:02;;;;;;;25.33;12.40;;;;;;;;;;6222520;28;20069;-60
2023/05/13 02:35:03;;;;;;;23.73;12.35;;;;;;;;;;6220552;28;20523;-60
2023/05/13 02:38:04;;;;;;;23.90;12.40;;;;;;;;;;6225459;28;20120;-57
2023/05/13 02:41:04;;;;;;;24.13;11.40;;;;;;;;;;6223699;28;20575;-60
2023/05/13 02:44:05;;;;;;;23.73;12.80;;;;;;;;;;6222054;28;20065;-59
2023/05/13 02:47:05;;;;;;;20.67;12.77;;;;;;;;;;6227082;28;20065;-59
2023/05/13 02:50:08;;;;;;;22.38;11.50;;;;;;;;;;6219904;28;20088;-61
2023/05/13 02:53:09;;;;;;;24.10;11.82;;;;;;;;;;6223099;28;20038;-59
2023/05/13 02:56:10;;;;;;;26.52;11.93;;;;;;;;;;6220141;28;20034;-57
2023/05/13 02:59:10;;;;;;;22.40;12.18;;;;;;;;;;6218682;28;20050;-60
2023/05/13 03:02:11;;;;;;;23.63;12.88;;;;;;;;;;6222921;28;20041;-60
2023/05/13 03:05:11;;;;;;;22.27;12.02;;;;;;;;;;6218062;28;20042;-60
2023/05/13 03:08:12;;;;;;;24.13;12.30;;;;;;;;;;6220422;28;20132;-60
2023/05/13 03:11:12;;;;;;;26.65;12.57;;;;;;;;;;6218320;28;22113;-60
2023/05/13 03:14:13;;;;;;;23.42;11.18;;;;;;;;;;6220285;28;20062;-60
2023/05/13 03:17:14;;;;;;;22.40;11.77;;;;;;;;;;6222223;28;20400;-59
2023/05/13 03:20:15;;;;;;;20.58;10.80;;;;;;;;;;6223779;28;20112;-60
2023/05/13 03:23:15;;;;;;;23.17;10.68;;;;;;;;;;6218908;28;20520;-59
2023/05/13 03:26:16;;;;;;;19.83;10.80;;;;;;;;;;6220927;28;20065;-61
2023/05/13 03:29:17;;;;;;;19.85;11.20;;;;;;;;;;6217004;28;20468;-61
2023/05/13 03:32:18;;;;;;;23.27;11.95;;;;;;;;;;6217119;28;20037;-60
2023/05/13 03:35:18;;;;;;;36.25;13.20;;;;;;;;;;6219442;28;20061;-59
2023/05/13 03:38:19;;;;;;;23.38;11.40;;;;;;;;;;6218841;28;20133;-60
2023/05/13 03:41:19;;;;;;;25.00;12.40;;;;;;;;;;6219767;28;20038;-60
2023/05/13 03:44:20;;;;;;;21.50;10.70;;;;;;;;;;6220476;28;20065;-59
2023/05/13 03:47:22;;;;;;;18.33;11.65;;;;;;;;;;6220819;28;20405;-60
2023/05/13 03:50:22;;;;;;;23.63;10.02;;;;;;;;;;6213613;28;20045;-60
2023/05/13 03:53:23;;;;;;;19.02;10.00;;;;;;;;;;6217362;28;20080;-59
2023/05/13 03:56:24;;;;;;;28.92;12.75;;;;;;;;;;6221991;28;20050;-59
2023/05/13 03:59:24;;;;;;;22.35;11.00;;;;;;;;;;6220565;28;20054;-60
2023/05/13 04:02:25;;;;;;;20.42;11.05;;;;;;;;;;6218339;28;20806;-59
2023/05/13 04:05:25;;;;;;;22.85;11.63;;;;;;;;;;6218986;28;20046;-53
2023/05/13 04:08:26;;;;;;;18.15;10.55;;;;;;;;;;6220602;28;20077;-58
2023/05/13 04:11:27;;;;;;;20.33;10.85;;;;;;;;;;6216639;28;20057;-60
2023/05/13 04:14:27;;;;;;;19.73;10.57;;;;;;;;;;6217765;28;20192;-59
2023/05/13 04:17:28;;;;;;;19.23;11.27;;;;;;;;;;6224511;28;20057;-58
2023/05/13 04:20:29;;;;;;;18.50;10.40;;;;;;;;;;6223495;28;20068;-60
2023/05/13 04:23:30;;;;;;;23.98;10.63;;;;;;;;;;6226106;28;20053;-60
2023/05/13 04:26:30;;;;;;;21.58;9.68;;;;;;;;;;6225162;28;20424;-52
2023/05/13 04:29:31;;;;;;;20.90;10.25;;;;;;;;;;6234096;28;20385;-59
2023/05/13 04:32:31;;;;;;;18.42;10.57;;;;;;;;;;6223761;28;20954;-55
2023/05/13 04:35:32;;;;;;;20.88;10.70;;;;;;;;;;6226558;28;20119;-55
2023/05/13 04:38:33;;;;;;;20.67;9.82;;;;;;;;;;6223582;28;20077;-58
2023/05/13 04:41:33;;;;;;;18.60;10.00;;;;;;;;;;6219836;28;20496;-55
2023/05/13 04:44:34;;;;;;;19.40;9.90;;;;;;;;;;6222343;28;20148;-57
2023/05/13 04:47:36;;;;;;;19.02;10.50;;;;;;;;;;6225346;28;20049;-54
2023/05/13 04:50:37;;;;;;;31.35;17.48;;;;;;;;;;6222022;28;20033;-58
2023/05/13 04:53:37;;;;;;;21.98;10.57;;;;;;;;;;6220150;28;20076;-57
2023/05/13 04:56:38;;;;;;;23.13;11.23;;;;;;;;;;6223639;28;20116;-59
2023/05/13 04:59:39;;;;;;;23.77;11.13;;;;;;;;;;6222344;28;20054;-60
2023/05/13 05:02:39;;;;;;;19.25;10.90;;;;;;;;;;6224864;28;20097;-59
2023/05/13 05:05:40;;;;;;;25.58;11.35;;;;;;;;;;6221963;28;20408;-59
2023/05/13 05:08:42;;;;;;;19.42;10.85;;;;;;;;;;6222783;28;20065;-60
2023/05/13 05:11:43;;;;;;;21.25;11.15;;;;;;;;;;6220026;28;20038;-60
2023/05/13 05:14:43;;;;;;;18.17;10.70;;;;;;;;;;6220151;28;20056;-59
2023/05/13 05:17:44;;;;;;;17.98;10.43;;;;;;;;;;6220321;28;20042;-57
2023/05/13 05:20:45;;;;;;;22.38;11.25;;;;;;;;;;6218045;28;20090;-57
2023/05/13 05:23:45;;;;;;;22.00;11.48;;;;;;;;;;6221915;28;20049;-53
2023/05/13 05:26:46;;;;;;;20.20;10.70;;;;;;;;;;6218645;28;20137;-59
2023/05/13 05:29:46;;;;;;;20.08;11.32;;;;;;;;;;6218295;28;20033;-60
2023/05/13 05:32:47;;;;;;;20.25;10.38;;;;;;;;;;6218762;28;20490;-60
2023/05/13 05:35:48;;;;;;;20.27;10.25;;;;;;;;;;6219771;28;20037;-59
2023/05/13 05:38:48;;;;;;;22.38;11.18;;;;;;;;;;6218132;28;20046;-56
2023/05/13 05:41:49;;;;;;;18.58;10.05;;;;;;;;;;6220932;28;20936;-59
2023/05/13 05:44:50;;;;;;;19.55;9.88;;;;;;;;;;6219178;28;20048;-58
2023/05/13 05:47:50;;;;;;;20.20;10.52;;;;;;;;;;6217327;28;20041;-60
2023/05/13 05:50:51;;;;;;;18.77;10.85;;;;;;;;;;6216987;28;20073;-59
2023/05/13 05:53:51;;;;;;;16.40;8.85;;;;;;;;;;6218760;28;20042;-59
2023/05/13 05:56:52;;;;;;;22.88;9.82;;;;;;;;;;6219733;28;20577;-59
2023/05/13 05:59:52;;;;;;;19.88;8.77;;;;;;;;;;6219690;28;20066;-59
2023/05/13 06:02:53;;;;;;;17.67;8.82;;;;;;;;;;6222611;28;20049;-57
2023/05/13 06:05:53;;;;;;;20.80;9.73;;;;;;;;;;6221378;28;20041;-59
2023/05/13 06:08:54;;;;;;;21.40;9.65;;;;;;;;;;6219983;28;20080;-59
2023/05/13 06:11:55;;;;;;;19.25;9.27;;;;;;;;;;6217775;28;20052;-59
2023/05/13 06:14:55;;;;;;;18.00;9.48;;;;;;;;;;6219728;28;20117;-60
2023/05/13 06:17:56;;;;;;;12.30;7.70;;;;;;;;;;6220350;28;20064;-57
2023/05/13 06:20:57;;;;;;;42.03;15.35;;;;;;;;;;6218235;28;20056;-59
2023/05/13 06:23:57;;;;;;;56.03;20.27;;;;;;;;;;6237819;28;20045;-57
2023/05/13 06:26:58;;;;;;;25.30;11.07;;;;;;;;;;6238617;28;20401;-59
2023/05/13 06:29:59;;;;;;;17.50;8.85;;;;;;;;;;6238337;28;20038;-49
2023/05/13 06:33:00;;;;;;;41.20;14.60;;;;;;;;;;6241297;28;20077;-52
2023/05/13 06:36:00;;;;;;;20.52;8.73;;;;;;;;;;6233534;28;20065;-60
2023/05/13 06:39:02;;;;;;;26.58;11.35;;;;;;;;;;6234499;28;20107;-50
2023/05/13 06:42:03;;;;;;;13.32;7.35;;;;;;;;;;6228604;28;20390;-52
2023/05/13 06:45:04;;;;;;;13.60;6.97;;;;;;;;;;6220440;28;20042;-52
2023/05/13 06:48:05;;;;;;;11.43;6.43;;;;;;;;;;6219096;28;20299;-50
2023/05/13 06:51:06;;;;;;;9.80;6.25;;;;;;;;;;6217814;28;20057;-57
2023/05/13 06:54:06;;;;;;;15.00;8.02;;;;;;;;;;6219762;28;20096;-50
2023/05/13 06:57:07;;;;;;;11.45;5.88;;;;;;;;;;6218935;28;20061;-53
2023/05/13 07:00:08;;;;;;;13.68;6.55;;;;;;;;;;6218836;28;20041;-51
2023/05/13 07:03:08;;;;;;;20.97;9.60;;;;;;;;;;6217767;28;20048;-52
2023/05/13 07:06:09;;;;;;;13.77;7.60;;;;;;;;;;6215972;28;20436;-59
2023/05/13 07:09:10;;;;;;;13.18;7.13;;;;;;;;;;6218513;28;20523;-57
2023/05/13 07:12:10;;;;;;;11.85;6.60;;;;;;;;;;6216313;28;20038;-60
2023/05/13 07:15:11;;;;;;;7.88;5.35;;;;;;;;;;6219776;28;20057;-58
2023/05/13 07:18:12;;;;;;;9.13;5.03;;;;;;;;;;6215362;28;20115;-58
2023/05/13 07:21:14;;;;;;;8.45;4.47;;;;;;;;;;6217256;28;20037;-57
2023/05/13 07:24:14;;;;;;;8.90;4.45;;;;;;;;;;6220916;28;20564;-57
2023/05/13 07:27:15;;;;;;;8.98;4.28;;;;;;;;;;6218840;28;20489;-60
2023/05/13 07:30:16;;;;;;;7.50;4.10;;;;;;;;;;6216569;28;20049;-59
2023/05/13 07:33:16;;;;;;;6.65;3.70;;;;;;;;;;6218707;28;20523;-66
2023/05/13 07:36:17;;;;;;;6.35;3.60;;;;;;;;;;6218916;28;20050;-57
2023/05/13 07:39:18;;;;;;;7.30;4.00;;;;;;;;;;6216359;28;20137;-60
2023/05/13 07:42:18;;;;;;;10.43;4.35;;;;;;;;;;6218069;28;20042;-56
2023/05/13 07:45:19;;;;;;;13.18;4.28;;;;;;;;;;6216909;28;20045;-58
2023/05/13 07:48:20;;;;;;;7.63;3.47;;;;;;;;;;6217756;28;20046;-59
2023/05/13 07:51:20;;;;;;;8.60;4.72;;;;;;;;;;6222965;28;20049;-58
2023/05/13 07:54:21;;;;;;;9.95;4.63;;;;;;;;;;6225181;28;20041;-57
2023/05/13 07:57:22;;;;;;;7.18;4.10;;;;;;;;;;6224130;28;20069;-58
2023/05/13 08:00:22;;;;;;;7.22;4.18;;;;;;;;;;6221864;28;20749;-59
2023/05/13 08:03:23;;;;;;;7.07;4.10;;;;;;;;;;6223917;28;20057;-59
2023/05/13 08:06:24;;;;;;;8.05;4.03;;;;;;;;;;6232637;28;20049;-60
2023/05/13 08:09:24;;;;;;;7.30;4.03;;;;;;;;;;6238588;28;20128;-61
2023/05/13 08:12:25;;;;;;;8.32;3.53;;;;;;;;;;6224924;28;20080;-58
2023/05/13 08:15:27;;;;;;;7.72;3.80;;;;;;;;;;6223609;28;20092;-55
2023/05/13 08:18:27;;;;;;;6.30;4.15;;;;;;;;;;6221249;28;20091;-60
2023/05/13 08:21:28;;;;;;;9.43;4.18;;;;;;;;;;6224414;28;20045;-57
2023/05/13 08:24:29;;;;;;;13.50;7.10;;;;;;;;;;6223907;28;20128;-54
2023/05/13 08:27:30;;;;;;;7.97;4.80;;;;;;;;;;6222797;28;20067;-59
2023/05/13 08:30:31;;;;;;;12.07;5.55;;;;;;;;;;6223613;28;20050;-57
2023/05/13 08:33:32;;;;;;;6.72;3.65;;;;;;;;;;6224621;28;20183;-57
2023/05/13 08:36:32;;;;;;;8.55;4.05;;;;;;;;;;6224556;28;20495;-59
2023/05/13 08:39:33;;;;;;;6.57;3.95;;;;;;;;;;6223181;28;20057;-60
2023/05/13 08:42:37;;;;;;;5.55;3.80;;;;;;;;;;6223822;28;20041;-60
2023/05/13 08:45:39;;;;;;;7.45;4.20;;;;;;;;;;6225048;28;20038;-52
2023/05/13 08:48:40;;;;;;;6.80;3.85;;;;;;;;;;6223137;28;20050;-55
2023/05/13 08:51:43;;;;;;;7.82;4.00;;;;;;;;;;6222485;28;20056;-58
2023/05/13 08:54:45;;;;;;;9.30;4.90;;;;;;;;;;6223110;28;20049;-61
2023/05/13 08:57:45;;;;;;;7.22;4.30;;;;;;;;;;6222132;28;20044;-60
2023/05/13 09:00:48;;;;;;;7.57;4.07;;;;;;;;;;6220185;28;20548;-58
2023/05/13 09:04:02;;;;;;;8.25;4.47;;;;;;;;;;6223095;28;20141;-59
2023/05/13 09:07:05;;;;;;;8.40;4.55;;;;;;;;;;6227093;28;20049;-54
2023/05/13 09:10:07;;;;;;;10.43;5.88;;;;;;;;;;6236893;28;20052;-59
2023/05/13 09:13:11;;;;;;;8.88;4.07;;;;;;;;;;6238473;28;20057;-59
2023/05/13 09:16:12;;;;;;;9.68;4.80;;;;;;;;;;6230161;28;20056;-55
2023/05/13 09:19:13;;;;;;;10.43;5.05;;;;;;;;;;6220767;28;20547;-59
2023/05/13 09:22:17;;;;;;;7.70;4.38;;;;;;;;;;6221736;28;20046;-55
2023/05/13 09:25:19;;;;;;;11.60;5.57;;;;;;;;;;6222425;28;20041;-58
2023/05/13 09:28:22;;;;;;;9.45;4.40;;;;;;;;;;6222217;28;20071;-59
2023/05/13 09:31:32;;;;;;;9.77;4.88;;;;;;;;;;6219539;28;20307;-59
2023/05/13 09:34:33;;;;;;;11.77;4.60;;;;;;;;;;6220197;28;20053;-59
2023/05/13 09:37:34;;;;;;;10.40;4.80;;;;;;;;;;6224210;28;20124;-56
2023/05/13 09:40:36;;;;;;;9.50;4.72;;;;;;;;;;6219599;28;20056;-59
2023/05/13 09:43:38;;;;;;;11.65;4.70;;;;;;;;;;6222697;28;20038;-55
2023/05/13 09:46:41;;;;;;;9.13;4.70;;;;;;;;;;6229468;28;20054;-56
2023/05/13 09:49:44;;;;;;;9.18;5.13;;;;;;;;;;6217262;28;20416;-60
2023/05/13 09:52:45;;;;;;;7.90;3.90;;;;;;;;;;6221711;28;20084;-58
2023/05/13 09:55:51;;;;;;;11.27;4.40;;;;;;;;;;6221272;28;20054;-54
2023/05/13 09:58:51;;;;;;;8.85;3.97;;;;;;;;;;6218076;28;20578;-59
2023/05/13 10:01:54;;;;;;;8.00;5.05;;;;;;;;;;6219139;28;20041;-57
2023/05/13 10:04:55;;;;;;;15.00;7.47;;;;;;;;;;6222272;28;20056;-56
2023/05/13 10:07:57;;;;;;;9.60;4.30;;;;;;;;;;6220147;28;20046;-60
2023/05/13 10:10:58;;;;;;;23.05;4.07;;;;;;;;;;6220335;28;20044;-55
2023/05/13 10:14:01;;;;;;;11.20;3.43;;;;;;;;;;6222485;28;20068;-59
2023/05/13 10:17:02;;;;;;;11.65;4.45;;;;;;;;;;6221734;28;20650;-58
2023/05/13 10:20:04;;;;;;;24.23;7.80;;;;;;;;;;6217560;28;20056;-59
2023/05/13 10:23:04;;;;;;;6.95;3.95;;;;;;;;;;6220269;28;20029;-57
2023/05/13 10:26:06;;;;;;;8.90;3.88;;;;;;;;;;6220754;28;20068;-53
2023/05/13 10:29:09;;;;;;;7.78;3.38;;;;;;;;;;6219787;28;20052;-58
2023/05/13 10:32:10;;;;;;;7.78;3.72;;;;;;;;;;6216917;28;20069;-58
2023/05/13 10:35:14;;;;;;;6.55;3.88;;;;;;;;;;6220395;28;20071;-59
2023/05/13 10:38:50;;;;;;;6.55;3.97;;;;;;;;;;6218578;28;20092;-56
2023/05/13 10:42:21;;;;;;;8.07;3.28;;;;;;;;;;6209619;28;20107;-60
2023/05/13 10:45:26;;;;;;;6.95;3.30;;;;;;;;;;6218975;28;20548;-57
2023/05/13 10:48:41;;;;;;;5.72;3.45;;;;;;;;;;6222861;28;20049;-57
2023/05/13 10:51:47;;;;;;;10.77;4.95;;;;;;;;;;6220557;28;20092;-55
2023/05/13 10:55:01;;;;;;;12.38;4.00;;;;;;;;;;6219178;28;20052;-59
2023/05/13 10:58:09;;;;;;;9.82;4.15;;;;;;;;;;6220850;28;20042;-53
2023/05/13 11:01:16;;;;;;;6.88;3.20;;;;;;;;;;6222088;28;20072;-56
2023/05/13 11:04:20;;;;;;;7.13;3.45;;;;;;;;;;6221976;28;20042;-59
2023/05/13 11:07:20;;;;;;;6.32;3.58;;;;;;;;;;6216393;28;20056;-54
2023/05/13 11:10:30;;;;;;;7.80;3.43;;;;;;;;;;6220652;28;20038;-55
2023/05/13 11:13:37;;;;;;;10.25;3.50;;;;;;;;;;6218050;28;20053;-60
2023/05/13 11:16:37;;;;;;;6.60;3.40;;;;;;;;;;6213757;28;20056;-59
2023/05/13 11:19:47;;;;;;;6.25;3.55;;;;;;;;;;6219214;28;20140;-60
2023/05/13 11:22:49;;;;;;;15.25;5.05;;;;;;;;;;6219033;28;20489;-59
2023/05/13 11:26:15;;;;;;;9.52;4.32;;;;;;;;;;6220007;28;20046;-61
2023/05/13 11:29:28;;;;;;;11.10;4.10;;;;;;;;;;6221533;28;20169;-59
2023/05/13 11:32:52;;;;;;;11.88;5.65;;;;;;;;;;6223760;28;20050;-59
2023/05/13 11:35:55;;;;;;;6.13;3.70;;;;;;;;;;6222995;28;20119;-60
2023/05/13 11:39:10;;;;;;;9.85;4.18;;;;;;;;;;6223328;28;20053;-56
2023/05/13 11:42:10;;;;;;;8.93;4.20;;;;;;;;;;6222364;28;20489;-59
2023/05/13 11:45:12;;;;;;;6.55;3.83;;;;;;;;;;6232748;28;20038;-57
2023/05/13 11:48:20;;;;;;;9.65;4.22;;;;;;;;;;6220414;28;20137;-51
2023/05/13 11:51:22;;;;;;;7.95;4.05;;;;;;;;;;6224988;28;20037;-57
2023/05/13 11:54:22;;;;;;;5.72;3.90;;;;;;;;;;6220357;28;20042;-54
2023/05/13 11:57:25;;;;;;;8.60;4.53;;;;;;;;;;6229168;28;20572;-60
2023/05/13 12:00:30;;;;;;;11.52;4.78;;;;;;;;;;6230321;28;20389;-60
2023/05/13 12:03:30;;;;;;;10.48;4.50;;;;;;;;;;6230367;28;20052;-65
2023/05/13 12:06:31;;;;;;;9.73;4.60;;;;;;;;;;6222942;28;20049;-62
2023/05/13 12:09:32;;;;;;;10.43;4.10;;;;;;;;;;6222330;28;20057;-64
2023/05/13 12:12:34;;;;;;;10.00;5.20;;;;;;;;;;6214551;28;20497;-60
2023/05/13 12:15:35;;;;;;;8.68;4.53;;;;;;;;;;6217020;28;20427;-56
2023/05/13 12:18:36;;;;;;;11.07;4.70;;;;;;;;;;6217495;28;20042;-56
2023/05/13 12:21:37;;;;;;;7.93;4.30;;;;;;;;;;6216957;28;20060;-54
2023/05/13 12:24:37;;;;;;;11.67;4.70;;;;;;;;;;6215078;28;20551;-61
2023/05/13 12:27:38;;;;;;;12.30;4.70;;;;;;;;;;6221750;28;20479;-55
2023/05/13 12:30:41;;;;;;;7.80;4.43;;;;;;;;;;6222316;28;20087;-60
2023/05/13 12:33:45;;;;;;;9.57;5.45;;;;;;;;;;6218828;28;20077;-56
2023/05/13 12:36:46;;;;;;;7.82;4.78;;;;;;;;;;6225336;28;21270;-60
2023/05/13 12:39:46;;;;;;;30.88;5.75;;;;;;;;;;6222012;28;20038;-56
2023/05/13 12:42:47;;;;;;;11.30;5.30;;;;;;;;;;6222006;28;20049;-57
2023/05/13 12:45:55;;;;;;;8.07;4.70;;;;;;;;;;6218280;28;20046;-56
2023/05/13 12:48:57;;;;;;;9.32;4.72;;;;;;;;;;6222100;28;20752;-56
2023/05/13 12:51:58;;;;;;;7.78;4.63;;;;;;;;;;6224188;28;20053;-55
2023/05/13 12:54:59;;;;;;;7.22;4.28;;;;;;;;;;6215799;28;20041;-55
2023/05/13 12:58:01;;;;;;;11.35;4.60;;;;;;;;;;6218922;28;20140;-61
2023/05/13 13:01:02;;;;;;;11.20;4.35;;;;;;;;;;6219013;28;20100;-59
2023/05/13 13:04:03;;;;;;;8.00;4.53;;;;;;;;;;6215501;28;20046;-57
2023/05/13 13:07:07;;;;;;;6.15;3.85;;;;;;;;;;6214516;28;20038;-53
2023/05/13 13:10:10;;;;;;;9.93;4.80;;;;;;;;;;6216012;28;20054;-53
2023/05/13 13:13:10;;;;;;;10.43;5.47;;;;;;;;;;6218900;28;20045;-54
2023/05/13 13:16:14;;;;;;;10.13;5.38;;;;;;;;;;6216818;28;21006;-56
2023/05/13 13:19:14;;;;;;;13.18;4.90;;;;;;;;;;6218934;28;20178;-53
2023/05/13 13:22:15;;;;;;;8.00;3.95;;;;;;;;;;6219656;28;20141;-53
2023/05/13 13:25:16;;;;;;;12.27;4.53;;;;;;;;;;6217164;28;20108;-51
2023/05/13 13:28:16;;;;;;;8.57;3.60;;;;;;;;;;6223019;28;20490;-52
2023/05/13 13:31:17;;;;;;;9.23;4.40;;;;;;;;;;6224604;28;20921;-55
2023/05/13 13:34:18;;;;;;;11.10;4.80;;;;;;;;;;6219380;28;20037;-52
2023/05/13 13:37:18;;;;;;;13.48;4.68;;;;;;;;;;6213576;28;20496;-55
2023/05/13 13:40:19;;;;;;;8.50;4.20;;;;;;;;;;6218389;28;20053;-61
2023/05/13 13:43:20;;;;;;;8.73;4.38;;;;;;;;;;6220515;28;20041;-56
2023/05/13 13:46:20;;;;;;;6.10;3.63;;;;;;;;;;6216974;28;20049;-58
2023/05/13 13:49:22;;;;;;;10.63;4.13;;;;;;;;;;6216351;28;20053;-53
2023/05/13 13:52:25;;;;;;;8.43;4.00;;;;;;;;;;6217299;28;20063;-53
2023/05/13 13:55:26;;;;;;;8.52;4.38;;;;;;;;;;6210523;28;20821;-55
2023/05/13 13:58:26;;;;;;;10.20;5.15;;;;;;;;;;6215878;28;20046;-57
2023/05/13 14:01:27;;;;;;;9.10;5.30;;;;;;;;;;6219065;28;20053;-57
2023/05/13 14:04:29;;;;;;;9.37;4.93;;;;;;;;;;6214771;28;20046;-57
2023/05/13 14:07:38;;;;;;;11.00;4.50;;;;;;;;;;6302587;28;20391;-55
2023/05/13 14:10:39;;;;;;;8.33;4.53;;;;;;;;;;6305801;28;20052;-56
2023/05/13 14:13:39;;;;;;;10.67;4.53;;;;;;;;;;6304750;28;20044;-58
2023/05/13 14:16:40;;;;;;;9.57;4.78;;;;;;;;;;6297226;28;20048;-62
2023/05/13 14:19:41;;;;;;;11.32;6.30;;;;;;;;;;6302122;28;20630;-59
2023/05/13 14:22:42;;;;;;;7.63;5.10;;;;;;;;;;6301124;28;20101;-61
2023/05/13 14:25:43;;;;;;;7.55;4.88;;;;;;;;;;6298011;28;20044;-58
2023/05/13 14:28:44;;;;;;;12.00;4.78;;;;;;;;;;6304390;28;20993;-56
2023/05/13 14:31:45;;;;;;;7.40;3.42;;;;;;;;;;6301850;28;20052;-63
2023/05/13 14:34:45;;;;;;;9.13;4.90;;;;;;;;;;6299657;28;20072;-57
2023/05/13 14:37:46;;;;;;;9.32;4.82;;;;;;;;;;6300633;28;20086;-56
2023/05/13 14:40:46;;;;;;;7.80;4.72;;;;;;;;;;6304697;28;21119;-62
2023/05/13 14:43:48;;;;;;;8.15;4.72;;;;;;;;;;6302749;28;20056;-54
2023/05/13 14:46:49;;;;;;;9.00;5.07;;;;;;;;;;6297886;28;20460;-55
2023/05/13 14:49:49;;;;;;;12.48;5.00;;;;;;;;;;6303058;28;20048;-52
2023/05/13 14:52:50;;;;;;;8.23;4.82;;;;;;;;;;6303184;28;20067;-53
2023/05/13 14:55:51;;;;;;;8.80;4.60;;;;;;;;;;6298758;28;20044;-55
2023/05/13 14:58:52;;;;;;;11.60;5.05;;;;;;;;;;6304415;28;20362;-52
2023/05/13 15:01:52;;;;;;;8.60;4.90;;;;;;;;;;6301394;28;20051;-53
2023/05/13 15:04:53;;;;;;;8.27;4.40;;;;;;;;;;6294638;28;20059;-55
2023/05/13 15:07:54;;;;;;;10.95;3.90;;;;;;;;;;6299923;28;20074;-55
2023/05/13 15:10:55;;;;;;;5.72;3.40;;;;;;;;;;6301776;28;20817;-59
2023/05/13 15:13:55;;;;;;;8.37;3.93;;;;;;;;;;6301214;28;20327;-60
2023/05/13 15:16:56;;;;;;;6.80;3.67;;;;;;;;;;6290425;28;20044;-53
2023/05/13 15:19:57;;;;;;;7.18;3.50;;;;;;;;;;6285304;28;20044;-52
2023/05/13 15:22:57;;;;;;;10.30;4.45;;;;;;;;;;6286459;28;20536;-53
2023/05/13 15:25:58;;;;;;;10.15;4.55;;;;;;;;;;6282649;28;20067;-56
2023/05/13 15:28:59;;;;;;;8.87;4.70;;;;;;;;;;6282919;28;20061;-56
2023/05/13 15:31:59;;;;;;;7.38;4.13;;;;;;;;;;6285341;28;20067;-56
2023/05/13 15:35:00;;;;;;;11.73;5.30;;;;;;;;;;6280811;28;20132;-57
2023/05/13 15:38:02;;;;;;;11.02;5.70;;;;;;;;;;6281460;28;20055;-64
2023/05/13 15:41:03;;;;;;;15.27;8.07;;;;;;;;;;6285776;28;20052;-62
2023/05/13 15:44:04;;;;;;;11.85;4.78;;;;;;;;;;6283275;28;20703;-64
2023/05/13 15:47:05;;;;;;;7.43;4.35;;;;;;;;;;6280835;28;20056;-62
2023/05/13 15:50:06;;;;;;;7.53;4.15;;;;;;;;;;6284747;28;20510;-63
2023/05/13 15:53:07;;;;;;;7.00;4.40;;;;;;;;;;6283381;28;20151;-61
2023/05/13 15:56:07;;;;;;;6.93;4.18;;;;;;;;;;6278800;28;20781;-58
2023/05/13 15:59:08;;;;;;;7.75;4.80;;;;;;;;;;6285398;28;20036;-62
2023/05/13 16:02:08;;;;;;;8.70;4.47;;;;;;;;;;6287923;28;20045;-63
2023/05/13 16:05:14;;;;;;;7.57;4.78;;;;;;;;;;6290817;28;20475;-59
2023/05/13 16:08:15;;;;;;;14.98;6.70;;;;;;;;;;6293178;28;20044;-63
2023/05/13 16:11:15;;;;;;;13.70;6.60;;;;;;;;;;6293026;28;20044;-61
2023/05/13 16:14:16;;;;;;;15.95;7.43;;;;;;;;;;6292868;28;20049;-63
2023/05/13 16:17:17;;;;;;;7.78;5.07;;;;;;;;;;6292175;28;20056;-63
2023/05/13 16:20:17;;;;;;;11.30;5.80;;;;;;;;;;6285443;28;20060;-63
2023/05/13 16:23:18;;;;;;;21.67;8.18;;;;;;;;;;6292141;28;20048;-61
2023/05/13 16:26:19;;;;;;;15.52;6.47;;;;;;;;;;6288886;28;20040;-65
2023/05/13 16:29:19;;;;;;;9.30;5.60;;;;;;;;;;6292853;28;20094;-63
2023/05/13 16:32:20;;;;;;;8.98;4.88;;;;;;;;;;6292686;28;20044;-64
2023/05/13 16:35:21;;;;;;;8.35;4.35;;;;;;;;;;6291056;28;20514;-64
2023/05/13 16:38:21;;;;;;;11.13;5.00;;;;;;;;;;6285461;28;20748;-64
2023/05/13 16:41:22;;;;;;;7.05;4.25;;;;;;;;;;6290293;28;20055;-64
2023/05/13 16:44:22;;;;;;;11.20;5.78;;;;;;;;;;6291382;28;20545;-62
2023/05/13 16:47:23;;;;;;;10.75;5.45;;;;;;;;;;6291511;28;20076;-64
2023/05/13 16:50:23;;;;;;;12.18;5.45;;;;;;;;;;6291973;28;20442;-60
2023/05/13 16:53:25;;;;;;;15.55;6.90;;;;;;;;;;6286211;28;20044;-63
2023/05/13 16:56:25;;;;;;;8.45;5.20;;;;;;;;;;6284385;28;20127;-61
2023/05/13 16:59:26;;;;;;;12.68;6.00;;;;;;;;;;6292263;28;20048;-64
2023/05/13 17:02:27;;;;;;;19.23;9.70;;;;;;;;;;6286360;28;20041;-64
2023/05/13 17:05:28;;;;;;;14.48;8.43;;;;;;;;;;6280935;28;20062;-59
2023/05/13 17:08:29;;;;;;;9.07;5.23;;;;;;;;;;6277320;28;20480;-64
2023/05/13 17:11:30;;;;;;;7.80;4.70;;;;;;;;;;6287556;28;20039;-62
2023/05/13 17:14:30;;;;;;;10.15;5.03;;;;;;;;;;6290057;28;20483;-59
2023/05/13 17:17:31;;;;;;;10.02;5.03;;;;;;;;;;6289914;28;20048;-58
2023/05/13 17:20:31;;;;;;;8.38;5.03;;;;;;;;;;6280128;28;20041;-59
2023/05/13 17:23:32;;;;;;;10.00;5.88;;;;;;;;;;6286633;28;20445;-61
2023/05/13 17:26:33;;;;;;;11.20;6.70;;;;;;;;;;6279296;28;20106;-54
2023/05/13 17:29:33;;;;;;;10.00;6.00;;;;;;;;;;6289851;28;20407;-55
2023/05/13 17:32:34;;;;;;;12.23;6.90;;;;;;;;;;6289543;28;20056;-53
2023/05/13 17:35:35;;;;;;;11.88;6.55;;;;;;;;;;6289133;28;20562;-55
2023/05/13 17:38:36;;;;;;;12.52;7.22;;;;;;;;;;6287352;28;20045;-56
2023/05/13 17:41:36;;;;;;;11.93;6.50;;;;;;;;;;6286587;28;20036;-60
2023/05/13 17:44:37;;;;;;;13.85;7.70;;;;;;;;;;6276614;28;20053;-60
2023/05/13 17:47:38;;;;;;;12.37;7.27;;;;;;;;;;6282310;28;20450;-58
2023/05/13 17:50:38;;;;;;;20.93;8.33;;;;;;;;;;6290140;28;20036;-60
2023/05/13 17:53:39;;;;;;;16.67;8.10;;;;;;;;;;6288162;28;20052;-60
2023/05/13 17:56:39;;;;;;;18.52;8.88;;;;;;;;;;6282540;28;20056;-59